sensor_id;sensor_type;location;lat;lon;timestamp;P1;durP1;ratioP1;P2;durP2;ratioP2
71867;SDS011;59738;48.324;14.230;2024-03-23T00:52:54;1.88;;;1.77;;
71867;SDS011;59738;48.324;14.230;2024-03-23T00:55:21;2.53;;;2.42;;
71867;SDS011;59738;48.324;14.230;2024-03-23T00:57:47;1.25;;;1.25;;
71867;SDS011;59738;48.324;14.230;2024-03-23T01:00:15;1.10;;;1.10;;
71867;SDS011;59738;48.324;14.230;2024-03-23T01:02:41;5.13;;;1.98;;
71867;SDS011;59738;48.324;14.230;2024-03-23T01:05:08;4.30;;;4.05;;
71867;SDS011;59738;48.324;14.230;2024-03-23T01:07:34;1.35;;;1.35;;
71867;SDS011;59738;48.324;14.230;2024-03-23T01:10:03;1.67;;;1.60;;
71867;SDS011;59738;48.324;14.230;2024-03-23T01:12:29;1.20;;;1.20;;
71867;SDS011;59738;48.324;14.230;2024-03-23T01:14:56;1.23;;;1.23;;
71867;SDS011;59738;48.324;14.230;2024-03-23T01:17:22;1.27;;;1.27;;
71867;SDS011;59738;48.324;14.230;2024-03-23T01:19:50;1.08;;;1.08;;
71867;SDS011;59738;48.324;14.230;2024-03-23T01:22:16;1.00;;;1.00;;
71867;SDS011;59738;48.324;14.230;2024-03-23T01:24:43;4.90;;;4.50;;
71867;SDS011;59738;48.324;14.230;2024-03-23T01:27:10;1.05;;;1.05;;
71867;SDS011;59738;48.324;14.230;2024-03-23T01:29:37;1.02;;;1.02;;
71867;SDS011;59738;48.324;14.230;2024-03-23T01:32:04;1.30;;;1.30;;
71867;SDS011;59738;48.324;14.230;2024-03-23T01:34:32;1.10;;;1.10;;
71867;SDS011;59738;48.324;14.230;2024-03-23T01:36:58;1.00;;;1.00;;
71867;SDS011;59738;48.324;14.230;2024-03-23T01:39:25;0.90;;;0.90;;
71867;SDS011;59738;48.324;14.230;2024-03-23T01:41:52;1.33;;;1.33;;
71867;SDS011;59738;48.324;14.230;2024-03-23T01:44:20;1.30;;;1.30;;
71867;SDS011;59738;48.324;14.230;2024-03-23T01:46:46;2.03;;;1.92;;
71867;SDS011;59738;48.324;14.230;2024-03-23T01:49:13;3.80;;;2.30;;
71867;SDS011;59738;48.324;14.230;2024-03-23T01:51:39;2.58;;;2.38;;
71867;SDS011;59738;48.324;14.230;2024-03-23T01:54:08;3.85;;;3.55;;
71867;SDS011;59738;48.324;14.230;2024-03-23T01:56:34;1.20;;;1.20;;
71867;SDS011;59738;48.324;14.230;2024-03-23T01:59:01;3.83;;;3.05;;
71867;SDS011;59738;48.324;14.230;2024-03-23T02:01:29;1.70;;;1.60;;
71867;SDS011;59738;48.324;14.230;2024-03-23T02:03:56;1.88;;;1.77;;
71867;SDS011;59738;48.324;14.230;2024-03-23T02:06:22;2.78;;;2.55;;
71867;SDS011;59738;48.324;14.230;2024-03-23T02:08:51;2.75;;;2.55;;
71867;SDS011;59738;48.324;14.230;2024-03-23T02:11:17;5.93;;;3.90;;
71867;SDS011;59738;48.324;14.230;2024-03-23T02:13:44;5.73;;;3.57;;
71867;SDS011;59738;48.324;14.230;2024-03-23T02:16:10;4.40;;;3.60;;
71867;SDS011;59738;48.324;14.230;2024-03-23T02:18:39;3.95;;;3.60;;
71867;SDS011;59738;48.324;14.230;2024-03-23T02:21:05;5.35;;;3.53;;
71867;SDS011;59738;48.324;14.230;2024-03-23T02:23:33;6.80;;;4.97;;
71867;SDS011;59738;48.324;14.230;2024-03-23T02:25:59;2.90;;;2.70;;
71867;SDS011;59738;48.324;14.230;2024-03-23T02:28:26;4.65;;;3.83;;
71867;SDS011;59738;48.324;14.230;2024-03-23T02:30:52;2.42;;;2.22;;
71867;SDS011;59738;48.324;14.230;2024-03-23T02:33:19;2.80;;;2.60;;
71867;SDS011;59738;48.324;14.230;2024-03-23T02:35:45;1.05;;;1.05;;
71867;SDS011;59738;48.324;14.230;2024-03-23T02:38:13;1.80;;;1.70;;
71867;SDS011;59738;48.324;14.230;2024-03-23T02:40:40;2.58;;;1.52;;
71867;SDS011;59738;48.324;14.230;2024-03-23T02:43:07;2.70;;;2.55;;
71867;SDS011;59738;48.324;14.230;2024-03-23T02:45:33;1.10;;;1.10;;
71867;SDS011;59738;48.324;14.230;2024-03-23T02:48:00;1.17;;;1.17;;
71867;SDS011;59738;48.324;14.230;2024-03-23T02:50:26;1.10;;;1.10;;
71867;SDS011;59738;48.324;14.230;2024-03-23T02:52:53;1.13;;;1.13;;
71867;SDS011;59738;48.324;14.230;2024-03-23T02:55:19;1.25;;;1.25;;
71867;SDS011;59738;48.324;14.230;2024-03-23T02:57:48;1.00;;;1.00;;
71867;SDS011;59738;48.324;14.230;2024-03-23T03:00:14;1.40;;;1.35;;
71867;SDS011;59738;48.324;14.230;2024-03-23T03:02:41;1.40;;;1.30;;
71867;SDS011;59738;48.324;14.230;2024-03-23T03:05:07;2.42;;;2.22;;
71867;SDS011;59738;48.324;14.230;2024-03-23T03:07:35;1.00;;;1.00;;
71867;SDS011;59738;48.324;14.230;2024-03-23T03:10:01;1.98;;;1.88;;
71867;SDS011;59738;48.324;14.230;2024-03-23T03:12:29;2.58;;;2.38;;
71867;SDS011;59738;48.324;14.230;2024-03-23T03:14:57;1.63;;;1.53;;
71867;SDS011;59738;48.324;14.230;2024-03-23T03:17:23;1.10;;;1.10;;
71867;SDS011;59738;48.324;14.230;2024-03-23T03:19:51;1.00;;;1.00;;
71867;SDS011;59738;48.324;14.230;2024-03-23T03:22:21;1.00;;;1.00;;
71867;SDS011;59738;48.324;14.230;2024-03-23T03:24:48;1.02;;;1.02;;
71867;SDS011;59738;48.324;14.230;2024-03-23T03:27:14;1.00;;;1.00;;
71867;SDS011;59738;48.324;14.230;2024-03-23T03:29:41;1.13;;;1.13;;
71867;SDS011;59738;48.324;14.230;2024-03-23T03:32:09;2.28;;;2.17;;
71867;SDS011;59738;48.324;14.230;2024-03-23T03:34:36;1.00;;;1.00;;
71867;SDS011;59738;48.324;14.230;2024-03-23T03:37:02;1.13;;;1.13;;
71867;SDS011;59738;48.324;14.230;2024-03-23T03:39:30;1.03;;;1.03;;
71867;SDS011;59738;48.324;14.230;2024-03-23T03:41:56;1.58;;;1.55;;
71867;SDS011;59738;48.324;14.230;2024-03-23T03:44:23;1.75;;;1.65;;
71867;SDS011;59738;48.324;14.230;2024-03-23T03:46:49;1.95;;;1.85;;
71867;SDS011;59738;48.324;14.230;2024-03-23T03:49:17;2.60;;;2.05;;
71867;SDS011;59738;48.324;14.230;2024-03-23T03:51:43;1.10;;;1.10;;
71867;SDS011;59738;48.324;14.230;2024-03-23T03:54:11;2.05;;;1.90;;
71867;SDS011;59738;48.324;14.230;2024-03-23T03:56:37;2.47;;;2.13;;
71867;SDS011;59738;48.324;14.230;2024-03-23T03:59:04;4.00;;;2.50;;
71867;SDS011;59738;48.324;14.230;2024-03-23T04:01:30;1.50;;;1.30;;
71867;SDS011;59738;48.324;14.230;2024-03-23T04:03:57;1.77;;;1.67;;
71867;SDS011;59738;48.324;14.230;2024-03-23T04:06:24;1.58;;;1.45;;
71867;SDS011;59738;48.324;14.230;2024-03-23T04:08:52;1.85;;;1.75;;
71867;SDS011;59738;48.324;14.230;2024-03-23T04:11:18;6.35;;;4.63;;
71867;SDS011;59738;48.324;14.230;2024-03-23T04:13:45;6.95;;;3.78;;
71867;SDS011;59738;48.324;14.230;2024-03-23T04:16:11;3.53;;;3.13;;
71867;SDS011;59738;48.324;14.230;2024-03-23T04:18:38;5.97;;;4.95;;
71867;SDS011;59738;48.324;14.230;2024-03-23T04:21:04;5.38;;;4.13;;
71867;SDS011;59738;48.324;14.230;2024-03-23T04:23:32;7.72;;;4.97;;
71867;SDS011;59738;48.324;14.230;2024-03-23T04:26:02;4.97;;;3.70;;
71867;SDS011;59738;48.324;14.230;2024-03-23T04:28:29;3.63;;;3.33;;
71867;SDS011;59738;48.324;14.230;2024-03-23T04:30:56;6.43;;;3.95;;
71867;SDS011;59738;48.324;14.230;2024-03-23T04:33:23;5.63;;;5.07;;
71867;SDS011;59738;48.324;14.230;2024-03-23T04:35:49;8.43;;;4.38;;
71867;SDS011;59738;48.324;14.230;2024-03-23T04:38:16;8.13;;;4.07;;
71867;SDS011;59738;48.324;14.230;2024-03-23T04:40:44;5.10;;;4.33;;
71867;SDS011;59738;48.324;14.230;2024-03-23T04:43:11;11.25;;;5.20;;
71867;SDS011;59738;48.324;14.230;2024-03-23T04:45:39;5.82;;;4.40;;
71867;SDS011;59738;48.324;14.230;2024-03-23T04:48:07;7.25;;;4.53;;
71867;SDS011;59738;48.324;14.230;2024-03-23T04:50:33;3.90;;;3.50;;
71867;SDS011;59738;48.324;14.230;2024-03-23T04:53:00;5.07;;;3.63;;
71867;SDS011;59738;48.324;14.230;2024-03-23T04:55:27;6.28;;;4.68;;
71867;SDS011;59738;48.324;14.230;2024-03-23T04:57:55;5.40;;;3.10;;
71867;SDS011;59738;48.324;14.230;2024-03-23T05:00:22;2.85;;;2.53;;
71867;SDS011;59738;48.324;14.230;2024-03-23T05:02:49;5.05;;;3.67;;
71867;SDS011;59738;48.324;14.230;2024-03-23T05:05:16;3.80;;;2.60;;
71867;SDS011;59738;48.324;14.230;2024-03-23T05:07:42;2.15;;;2.05;;
71867;SDS011;59738;48.324;14.230;2024-03-23T05:10:09;1.23;;;1.23;;
71867;SDS011;59738;48.324;14.230;2024-03-23T05:12:36;1.55;;;1.52;;
71867;SDS011;59738;48.324;14.230;2024-03-23T05:15:05;3.05;;;2.30;;
71867;SDS011;59738;48.324;14.230;2024-03-23T05:17:32;1.10;;;1.10;;
71867;SDS011;59738;48.324;14.230;2024-03-23T05:19:59;1.20;;;1.20;;
71867;SDS011;59738;48.324;14.230;2024-03-23T05:22:25;1.27;;;1.27;;
71867;SDS011;59738;48.324;14.230;2024-03-23T05:24:53;1.33;;;1.33;;
71867;SDS011;59738;48.324;14.230;2024-03-23T05:27:19;4.72;;;2.33;;
71867;SDS011;59738;48.324;14.230;2024-03-23T05:29:46;1.90;;;1.70;;
71867;SDS011;59738;48.324;14.230;2024-03-23T05:32:14;2.15;;;1.98;;
71867;SDS011;59738;48.324;14.230;2024-03-23T05:34:41;2.03;;;1.92;;
71867;SDS011;59738;48.324;14.230;2024-03-23T05:37:07;1.80;;;1.70;;
71867;SDS011;59738;48.324;14.230;2024-03-23T05:39:34;2.45;;;2.20;;
71867;SDS011;59738;48.324;14.230;2024-03-23T05:42:00;1.83;;;1.73;;
71867;SDS011;59738;48.324;14.230;2024-03-23T05:44:27;5.40;;;2.85;;
71867;SDS011;59738;48.324;14.230;2024-03-23T05:46:54;2.17;;;2.08;;
71867;SDS011;59738;48.324;14.230;2024-03-23T05:49:22;2.50;;;2.30;;
71867;SDS011;59738;48.324;14.230;2024-03-23T05:51:48;2.22;;;2.03;;
71867;SDS011;59738;48.324;14.230;2024-03-23T05:54:15;1.50;;;1.50;;
71867;SDS011;59738;48.324;14.230;2024-03-23T05:56:41;1.75;;;1.60;;
71867;SDS011;59738;48.324;14.230;2024-03-23T05:59:09;3.25;;;1.75;;
71867;SDS011;59738;48.324;14.230;2024-03-23T06:01:35;2.67;;;2.30;;
71867;SDS011;59738;48.324;14.230;2024-03-23T06:04:02;2.97;;;2.72;;
71867;SDS011;59738;48.324;14.230;2024-03-23T06:06:30;2.57;;;2.10;;
71867;SDS011;59738;48.324;14.230;2024-03-23T06:08:57;1.30;;;1.30;;
71867;SDS011;59738;48.324;14.230;2024-03-23T06:11:23;1.88;;;1.77;;
71867;SDS011;59738;48.324;14.230;2024-03-23T06:13:52;2.45;;;2.25;;
71867;SDS011;59738;48.324;14.230;2024-03-23T06:16:19;9.05;;;3.45;;
71867;SDS011;59738;48.324;14.230;2024-03-23T06:18:49;6.80;;;5.47;;
71867;SDS011;59738;48.324;14.230;2024-03-23T06:21:16;2.25;;;2.10;;
71867;SDS011;59738;48.324;14.230;2024-03-23T06:23:44;2.10;;;2.00;;
71867;SDS011;59738;48.324;14.230;2024-03-23T06:26:16;1.67;;;1.58;;
71867;SDS011;59738;48.324;14.230;2024-03-23T06:28:42;3.70;;;3.40;;
71867;SDS011;59738;48.324;14.230;2024-03-23T06:31:10;1.00;;;1.00;;
71867;SDS011;59738;48.324;14.230;2024-03-23T06:33:36;2.10;;;1.90;;
71867;SDS011;59738;48.324;14.230;2024-03-23T06:36:03;3.05;;;2.78;;
71867;SDS011;59738;48.324;14.230;2024-03-23T06:38:29;3.67;;;3.00;;
71867;SDS011;59738;48.324;14.230;2024-03-23T06:40:58;6.78;;;4.55;;
71867;SDS011;59738;48.324;14.230;2024-03-23T06:43:24;2.90;;;2.70;;
71867;SDS011;59738;48.324;14.230;2024-03-23T06:45:54;4.25;;;3.78;;
71867;SDS011;59738;48.324;14.230;2024-03-23T06:48:20;2.70;;;2.50;;
71867;SDS011;59738;48.324;14.230;2024-03-23T06:50:47;5.68;;;4.55;;
71867;SDS011;59738;48.324;14.230;2024-03-23T06:53:14;3.55;;;3.33;;
71867;SDS011;59738;48.324;14.230;2024-03-23T06:55:41;4.10;;;3.67;;
71867;SDS011;59738;48.324;14.230;2024-03-23T06:58:08;3.00;;;2.33;;
71867;SDS011;59738;48.324;14.230;2024-03-23T07:00:35;3.97;;;3.33;;
71867;SDS011;59738;48.324;14.230;2024-03-23T07:03:01;7.13;;;3.58;;
71867;SDS011;59738;48.324;14.230;2024-03-23T07:05:29;2.22;;;2.08;;
71867;SDS011;59738;48.324;14.230;2024-03-23T07:07:55;1.67;;;1.57;;
71867;SDS011;59738;48.324;14.230;2024-03-23T07:10:22;3.65;;;3.05;;
71867;SDS011;59738;48.324;14.230;2024-03-23T07:12:49;8.45;;;4.43;;
71867;SDS011;59738;48.324;14.230;2024-03-23T07:15:17;8.98;;;5.45;;
71867;SDS011;59738;48.324;14.230;2024-03-23T07:17:46;6.13;;;3.42;;
71867;SDS011;59738;48.324;14.230;2024-03-23T07:20:13;5.80;;;4.10;;
71867;SDS011;59738;48.324;14.230;2024-03-23T07:22:39;12.20;;;6.13;;
71867;SDS011;59738;48.324;14.230;2024-03-23T07:25:06;5.28;;;4.78;;
71867;SDS011;59738;48.324;14.230;2024-03-23T07:27:32;2.78;;;2.50;;
71867;SDS011;59738;48.324;14.230;2024-03-23T07:30:00;4.85;;;3.63;;
71867;SDS011;59738;48.324;14.230;2024-03-23T07:32:28;4.73;;;3.90;;
71867;SDS011;59738;48.324;14.230;2024-03-23T07:34:55;2.15;;;2.05;;
71867;SDS011;59738;48.324;14.230;2024-03-23T07:37:21;4.32;;;3.58;;
71867;SDS011;59738;48.324;14.230;2024-03-23T07:39:48;4.85;;;2.92;;
71867;SDS011;59738;48.324;14.230;2024-03-23T07:42:14;1.80;;;1.70;;
71867;SDS011;59738;48.324;14.230;2024-03-23T07:44:41;2.60;;;2.40;;
71867;SDS011;59738;48.324;14.230;2024-03-23T07:47:07;5.38;;;3.83;;
71867;SDS011;59738;48.324;14.230;2024-03-23T07:49:36;5.72;;;3.42;;
71867;SDS011;59738;48.324;14.230;2024-03-23T07:52:02;6.53;;;3.95;;
71867;SDS011;59738;48.324;14.230;2024-03-23T07:54:29;5.00;;;2.15;;
71867;SDS011;59738;48.324;14.230;2024-03-23T07:56:55;9.23;;;2.50;;
71867;SDS011;59738;48.324;14.230;2024-03-23T07:59:22;3.38;;;3.08;;
71867;SDS011;59738;48.324;14.230;2024-03-23T08:01:48;2.13;;;2.03;;
71867;SDS011;59738;48.324;14.230;2024-03-23T08:04:15;7.32;;;4.25;;
71867;SDS011;59738;48.324;14.230;2024-03-23T08:06:42;5.78;;;3.90;;
71867;SDS011;59738;48.324;14.230;2024-03-23T08:09:10;1.90;;;1.80;;
71867;SDS011;59738;48.324;14.230;2024-03-23T08:11:36;1.20;;;1.20;;
71867;SDS011;59738;48.324;14.230;2024-03-23T08:14:05;2.50;;;2.03;;
71867;SDS011;59738;48.324;14.230;2024-03-23T08:16:31;2.05;;;1.85;;
71867;SDS011;59738;48.324;14.230;2024-03-23T08:18:59;2.15;;;2.03;;
71867;SDS011;59738;48.324;14.230;2024-03-23T08:21:25;12.80;;;4.60;;
71867;SDS011;59738;48.324;14.230;2024-03-23T08:23:54;1.52;;;1.42;;
71867;SDS011;59738;48.324;14.230;2024-03-23T08:26:20;3.63;;;2.70;;
71867;SDS011;59738;48.324;14.230;2024-03-23T08:28:47;2.80;;;2.60;;
71867;SDS011;59738;48.324;14.230;2024-03-23T08:31:13;2.65;;;2.08;;
71867;SDS011;59738;48.324;14.230;2024-03-23T08:33:41;1.67;;;1.60;;
71867;SDS011;59738;48.324;14.230;2024-03-23T08:36:09;5.72;;;2.75;;
71867;SDS011;59738;48.324;14.230;2024-03-23T08:38:38;3.00;;;2.80;;
71867;SDS011;59738;48.324;14.230;2024-03-23T08:41:05;2.38;;;2.17;;
71867;SDS011;59738;48.324;14.230;2024-03-23T08:43:33;2.55;;;2.40;;
71867;SDS011;59738;48.324;14.230;2024-03-23T08:46:03;1.53;;;1.43;;
71867;SDS011;59738;48.324;14.230;2024-03-23T08:48:30;2.58;;;2.35;;
71867;SDS011;59738;48.324;14.230;2024-03-23T08:51:03;4.47;;;2.63;;
71867;SDS011;59738;48.324;14.230;2024-03-23T08:53:30;7.57;;;3.47;;
71867;SDS011;59738;48.324;14.230;2024-03-23T08:55:57;2.67;;;2.35;;
71867;SDS011;59738;48.324;14.230;2024-03-23T08:58:25;2.10;;;2.00;;
71867;SDS011;59738;48.324;14.230;2024-03-23T09:00:52;2.95;;;2.35;;
71867;SDS011;59738;48.324;14.230;2024-03-23T09:03:22;1.30;;;1.20;;
71867;SDS011;59738;48.324;14.230;2024-03-23T09:05:48;1.95;;;1.85;;
71867;SDS011;59738;48.324;14.230;2024-03-23T09:08:15;3.63;;;1.73;;
71867;SDS011;59738;48.324;14.230;2024-03-23T09:10:41;1.93;;;1.83;;
71867;SDS011;59738;48.324;14.230;2024-03-23T09:13:10;1.25;;;1.25;;
71867;SDS011;59738;48.324;14.230;2024-03-23T09:15:44;1.63;;;1.52;;
71867;SDS011;59738;48.324;14.230;2024-03-23T09:18:12;1.75;;;1.67;;
71867;SDS011;59738;48.324;14.230;2024-03-23T09:20:38;1.08;;;1.08;;
71867;SDS011;59738;48.324;14.230;2024-03-23T09:23:05;1.37;;;1.37;;
71867;SDS011;59738;48.324;14.230;2024-03-23T09:25:31;1.50;;;1.40;;
71867;SDS011;59738;48.324;14.230;2024-03-23T09:27:58;1.30;;;1.30;;
71867;SDS011;59738;48.324;14.230;2024-03-23T09:30:24;1.30;;;1.30;;
71867;SDS011;59738;48.324;14.230;2024-03-23T09:32:53;1.23;;;1.23;;
71867;SDS011;59738;48.324;14.230;2024-03-23T09:35:19;1.17;;;1.17;;
71867;SDS011;59738;48.324;14.230;2024-03-23T09:37:46;1.30;;;1.30;;
71867;SDS011;59738;48.324;14.230;2024-03-23T09:40:12;1.52;;;1.48;;
71867;SDS011;59738;48.324;14.230;2024-03-23T09:42:39;1.50;;;1.40;;
71867;SDS011;59738;48.324;14.230;2024-03-23T09:45:06;6.38;;;5.40;;
71867;SDS011;59738;48.324;14.230;2024-03-23T09:47:33;1.47;;;1.37;;
71867;SDS011;59738;48.324;14.230;2024-03-23T09:50:00;1.38;;;1.38;;
71867;SDS011;59738;48.324;14.230;2024-03-23T09:52:28;2.08;;;1.98;;
71867;SDS011;59738;48.324;14.230;2024-03-23T09:54:54;1.77;;;1.67;;
71867;SDS011;59738;48.324;14.230;2024-03-23T09:57:21;1.33;;;1.25;;
71867;SDS011;59738;48.324;14.230;2024-03-23T09:59:47;1.37;;;1.37;;
71867;SDS011;59738;48.324;14.230;2024-03-23T10:02:15;1.60;;;1.50;;
71867;SDS011;59738;48.324;14.230;2024-03-23T10:04:42;10.52;;;2.40;;
71867;SDS011;59738;48.324;14.230;2024-03-23T10:07:15;1.75;;;1.65;;
71867;SDS011;59738;48.324;14.230;2024-03-23T10:09:42;2.40;;;2.20;;
71867;SDS011;59738;48.324;14.230;2024-03-23T10:12:10;2.17;;;1.97;;
71867;SDS011;59738;48.324;14.230;2024-03-23T10:14:36;1.33;;;1.33;;
71867;SDS011;59738;48.324;14.230;2024-03-23T10:17:11;2.58;;;2.15;;
71867;SDS011;59738;48.324;14.230;2024-03-23T10:19:38;6.07;;;3.08;;
71867;SDS011;59738;48.324;14.230;2024-03-23T10:22:06;1.20;;;1.17;;
71867;SDS011;59738;48.324;14.230;2024-03-23T10:24:34;1.70;;;1.60;;
71867;SDS011;59738;48.324;14.230;2024-03-23T10:27:00;2.58;;;1.25;;
71867;SDS011;59738;48.324;14.230;2024-03-23T10:29:27;1.35;;;1.25;;
71867;SDS011;59738;48.324;14.230;2024-03-23T10:31:54;5.25;;;1.50;;
71867;SDS011;59738;48.324;14.230;2024-03-23T10:34:25;0.95;;;0.95;;
71867;SDS011;59738;48.324;14.230;2024-03-23T10:36:51;1.20;;;1.20;;
71867;SDS011;59738;48.324;14.230;2024-03-23T10:39:20;0.95;;;0.95;;
71867;SDS011;59738;48.324;14.230;2024-03-23T10:41:50;0.90;;;0.90;;
71867;SDS011;59738;48.324;14.230;2024-03-23T10:44:17;1.30;;;1.20;;
71867;SDS011;59738;48.324;14.230;2024-03-23T10:46:45;0.90;;;0.90;;
71867;SDS011;59738;48.324;14.230;2024-03-23T10:49:12;0.90;;;0.90;;
71867;SDS011;59738;48.324;14.230;2024-03-23T10:51:38;0.95;;;0.95;;
71867;SDS011;59738;48.324;14.230;2024-03-23T10:54:05;1.08;;;1.08;;
71867;SDS011;59738;48.324;14.230;2024-03-23T10:56:33;2.28;;;2.08;;
71867;SDS011;59738;48.324;14.230;2024-03-23T10:59:03;1.10;;;1.10;;
71867;SDS011;59738;48.324;14.230;2024-03-23T11:01:30;1.20;;;1.20;;
71867;SDS011;59738;48.324;14.230;2024-03-23T11:03:57;1.08;;;1.08;;
71867;SDS011;59738;48.324;14.230;2024-03-23T11:06:35;1.00;;;1.00;;
71867;SDS011;59738;48.324;14.230;2024-03-23T11:09:02;1.40;;;1.30;;
71867;SDS011;59738;48.324;14.230;2024-03-23T11:11:29;1.00;;;1.00;;
71867;SDS011;59738;48.324;14.230;2024-03-23T11:13:57;1.20;;;1.10;;
71867;SDS011;59738;48.324;14.230;2024-03-23T11:16:25;1.67;;;1.13;;
71867;SDS011;59738;48.324;14.230;2024-03-23T11:18:53;0.95;;;0.95;;
71867;SDS011;59738;48.324;14.230;2024-03-23T11:24:14;1.30;;;1.20;;
71867;SDS011;59738;48.324;14.230;2024-03-23T11:26:40;1.30;;;1.30;;
71867;SDS011;59738;48.324;14.230;2024-03-23T11:29:08;3.33;;;1.20;;
71867;SDS011;59738;48.324;14.230;2024-03-23T11:31:37;1.20;;;1.20;;
71867;SDS011;59738;48.324;14.230;2024-03-23T11:34:04;9.63;;;2.85;;
71867;SDS011;59738;48.324;14.230;2024-03-23T11:36:31;1.02;;;1.02;;
71867;SDS011;59738;48.324;14.230;2024-03-23T11:38:58;0.90;;;0.90;;
71867;SDS011;59738;48.324;14.230;2024-03-23T11:41:24;0.95;;;0.95;;
71867;SDS011;59738;48.324;14.230;2024-03-23T11:43:51;1.00;;;1.00;;
71867;SDS011;59738;48.324;14.230;2024-03-23T11:46:21;1.00;;;1.00;;
71867;SDS011;59738;48.324;14.230;2024-03-23T11:48:50;1.35;;;1.35;;
71867;SDS011;59738;48.324;14.230;2024-03-23T11:51:17;1.13;;;0.97;;
71867;SDS011;59738;48.324;14.230;2024-03-23T11:53:44;1.10;;;1.10;;
71867;SDS011;59738;48.324;14.230;2024-03-23T11:56:10;1.02;;;1.02;;
71867;SDS011;59738;48.324;14.230;2024-03-23T11:58:37;2.85;;;1.27;;
71867;SDS011;59738;48.324;14.230;2024-03-23T12:01:04;1.00;;;1.00;;
71867;SDS011;59738;48.324;14.230;2024-03-23T12:03:31;1.17;;;1.17;;
71867;SDS011;59738;48.324;14.230;2024-03-23T12:06:00;1.15;;;1.15;;
71867;SDS011;59738;48.324;14.230;2024-03-23T12:08:29;3.33;;;1.65;;
71867;SDS011;59738;48.324;14.230;2024-03-23T12:11:04;1.05;;;1.05;;
71867;SDS011;59738;48.324;14.230;2024-03-23T12:13:31;1.77;;;1.25;;
71867;SDS011;59738;48.324;14.230;2024-03-23T12:16:08;1.43;;;1.43;;
71867;SDS011;59738;48.324;14.230;2024-03-23T12:18:35;1.67;;;1.08;;
71867;SDS011;59738;48.324;14.230;2024-03-23T12:21:03;3.00;;;1.98;;
71867;SDS011;59738;48.324;14.230;2024-03-23T12:23:30;1.00;;;1.00;;
71867;SDS011;59738;48.324;14.230;2024-03-23T12:25:56;0.90;;;0.90;;
71867;SDS011;59738;48.324;14.230;2024-03-23T12:28:23;1.40;;;1.30;;
71867;SDS011;59738;48.324;14.230;2024-03-23T12:30:49;1.17;;;1.10;;
71867;SDS011;59738;48.324;14.230;2024-03-23T12:33:17;1.00;;;1.00;;
71867;SDS011;59738;48.324;14.230;2024-03-23T12:35:43;1.20;;;1.15;;
71867;SDS011;59738;48.324;14.230;2024-03-23T12:38:12;1.13;;;1.02;;
71867;SDS011;59738;48.324;14.230;2024-03-23T12:40:38;1.30;;;1.30;;
71867;SDS011;59738;48.324;14.230;2024-03-23T12:43:05;1.25;;;1.20;;
71867;SDS011;59738;48.324;14.230;2024-03-23T12:45:31;1.13;;;1.13;;
71867;SDS011;59738;48.324;14.230;2024-03-23T12:47:58;1.65;;;1.30;;
71867;SDS011;59738;48.324;14.230;2024-03-23T12:50:24;1.40;;;1.30;;
71867;SDS011;59738;48.324;14.230;2024-03-23T12:52:51;1.40;;;1.30;;
71867;SDS011;59738;48.324;14.230;2024-03-23T12:55:19;1.00;;;1.00;;
71867;SDS011;59738;48.324;14.230;2024-03-23T12:57:46;1.60;;;1.50;;
71867;SDS011;59738;48.324;14.230;2024-03-23T13:00:12;1.33;;;1.30;;
71867;SDS011;59738;48.324;14.230;2024-03-23T13:02:41;1.77;;;1.02;;
71867;SDS011;59738;48.324;14.230;2024-03-23T13:05:07;1.57;;;1.47;;
71867;SDS011;59738;48.324;14.230;2024-03-23T13:07:35;1.00;;;1.00;;
71867;SDS011;59738;48.324;14.230;2024-03-23T13:10:03;1.15;;;1.15;;
71867;SDS011;59738;48.324;14.230;2024-03-23T13:12:32;1.30;;;1.20;;
71867;SDS011;59738;48.324;14.230;2024-03-23T13:14:58;1.10;;;1.10;;
71867;SDS011;59738;48.324;14.230;2024-03-23T13:17:25;1.20;;;1.20;;
71867;SDS011;59738;48.324;14.230;2024-03-23T13:19:52;1.17;;;1.17;;
71867;SDS011;59738;48.324;14.230;2024-03-23T13:22:19;1.08;;;1.05;;
71867;SDS011;59738;48.324;14.230;2024-03-23T13:24:46;1.00;;;1.00;;
71867;SDS011;59738;48.324;14.230;2024-03-23T13:27:13;1.30;;;1.20;;
71867;SDS011;59738;48.324;14.230;2024-03-23T13:29:41;1.20;;;1.20;;
71867;SDS011;59738;48.324;14.230;2024-03-23T13:32:08;1.30;;;1.30;;
71867;SDS011;59738;48.324;14.230;2024-03-23T13:34:34;1.52;;;1.23;;
71867;SDS011;59738;48.324;14.230;2024-03-23T13:37:01;1.50;;;1.40;;
71867;SDS011;59738;48.324;14.230;2024-03-23T13:39:27;1.00;;;1.00;;
71867;SDS011;59738;48.324;14.230;2024-03-23T13:41:55;1.10;;;1.10;;
71867;SDS011;59738;48.324;14.230;2024-03-23T13:44:21;1.40;;;1.30;;
71867;SDS011;59738;48.324;14.230;2024-03-23T13:46:49;1.10;;;1.10;;
71867;SDS011;59738;48.324;14.230;2024-03-23T13:49:24;1.25;;;1.23;;
71867;SDS011;59738;48.324;14.230;2024-03-23T13:51:52;1.10;;;1.10;;
71867;SDS011;59738;48.324;14.230;2024-03-23T13:54:18;1.30;;;1.30;;
71867;SDS011;59738;48.324;14.230;2024-03-23T13:56:45;0.93;;;0.93;;
71867;SDS011;59738;48.324;14.230;2024-03-23T13:59:11;1.10;;;1.10;;
71867;SDS011;59738;48.324;14.230;2024-03-23T14:01:38;1.15;;;1.15;;
71867;SDS011;59738;48.324;14.230;2024-03-23T14:04:05;1.33;;;1.33;;
71867;SDS011;59738;48.324;14.230;2024-03-23T14:06:33;1.63;;;1.23;;
71867;SDS011;59738;48.324;14.230;2024-03-23T14:08:59;1.00;;;1.00;;
71867;SDS011;59738;48.324;14.230;2024-03-23T14:11:26;1.08;;;1.08;;
71867;SDS011;59738;48.324;14.230;2024-03-23T14:13:54;1.00;;;1.00;;
71867;SDS011;59738;48.324;14.230;2024-03-23T14:16:21;1.00;;;1.00;;
71867;SDS011;59738;48.324;14.230;2024-03-23T14:18:47;1.05;;;1.05;;
71867;SDS011;59738;48.324;14.230;2024-03-23T14:21:15;0.95;;;0.95;;
71867;SDS011;59738;48.324;14.230;2024-03-23T14:23:41;1.00;;;1.00;;
71867;SDS011;59738;48.324;14.230;2024-03-23T14:26:08;1.05;;;1.05;;
71867;SDS011;59738;48.324;14.230;2024-03-23T14:28:34;1.00;;;1.00;;
71867;SDS011;59738;48.324;14.230;2024-03-23T14:31:01;1.20;;;1.20;;
71867;SDS011;59738;48.324;14.230;2024-03-23T14:33:29;1.13;;;1.13;;
71867;SDS011;59738;48.324;14.230;2024-03-23T14:35:58;1.98;;;1.88;;
71867;SDS011;59738;48.324;14.230;2024-03-23T14:38:25;1.42;;;1.42;;
71867;SDS011;59738;48.324;14.230;2024-03-23T14:40:53;1.00;;;1.00;;
71867;SDS011;59738;48.324;14.230;2024-03-23T14:43:19;1.50;;;1.40;;
71867;SDS011;59738;48.324;14.230;2024-03-23T14:48:30;1.05;;;1.05;;
71867;SDS011;59738;48.324;14.230;2024-03-23T14:50:58;1.23;;;1.20;;
71867;SDS011;59738;48.324;14.230;2024-03-23T14:53:26;1.20;;;1.20;;
71867;SDS011;59738;48.324;14.230;2024-03-23T14:55:55;1.07;;;1.07;;
71867;SDS011;59738;48.324;14.230;2024-03-23T14:58:21;1.40;;;1.30;;
71867;SDS011;59738;48.324;14.230;2024-03-23T15:00:49;1.83;;;1.73;;
71867;SDS011;59738;48.324;14.230;2024-03-23T15:03:15;1.10;;;1.10;;
71867;SDS011;59738;48.324;14.230;2024-03-23T15:05:42;1.60;;;1.50;;
71867;SDS011;59738;48.324;14.230;2024-03-23T15:08:17;1.60;;;1.50;;
71867;SDS011;59738;48.324;14.230;2024-03-23T15:10:45;1.40;;;1.40;;
71867;SDS011;59738;48.324;14.230;2024-03-23T15:13:11;1.20;;;1.20;;
71867;SDS011;59738;48.324;14.230;2024-03-23T15:15:39;1.65;;;1.55;;
71867;SDS011;59738;48.324;14.230;2024-03-23T15:18:06;1.20;;;1.20;;
71867;SDS011;59738;48.324;14.230;2024-03-23T15:20:33;1.10;;;1.10;;
71867;SDS011;59738;48.324;14.230;2024-03-23T15:23:01;1.00;;;1.00;;
71867;SDS011;59738;48.324;14.230;2024-03-23T15:25:28;1.30;;;1.30;;
71867;SDS011;59738;48.324;14.230;2024-03-23T15:27:56;1.20;;;1.20;;
71867;SDS011;59738;48.324;14.230;2024-03-23T15:30:23;1.08;;;1.08;;